sensor_id;sensor_type;location;lat;lon;timestamp;P1;durP1;ratioP1;P2;durP2;ratioP2
57331;SDS011;43164;50.908;18.092;2023-09-08T00:01:40;4.60;;;3.10;;
57331;SDS011;43164;50.908;18.092;2023-09-08T00:04:14;5.80;;;3.50;;
57331;SDS011;43164;50.908;18.092;2023-09-08T00:06:42;5.30;;;3.10;;
57331;SDS011;43164;50.908;18.092;2023-09-08T00:09:12;5.90;;;3.90;;
57331;SDS011;43164;50.908;18.092;2023-09-08T00:11:41;7.70;;;4.80;;
57331;SDS011;43164;50.908;18.092;2023-09-08T00:14:09;7.40;;;4.60;;
57331;SDS011;43164;50.908;18.092;2023-09-08T00:16:37;7.20;;;4.10;;
57331;SDS011;43164;50.908;18.092;2023-09-08T00:19:06;5.70;;;3.30;;
57331;SDS011;43164;50.908;18.092;2023-09-08T00:21:35;6.90;;;4.40;;
57331;SDS011;43164;50.908;18.092;2023-09-08T00:24:07;6.90;;;3.70;;
57331;SDS011;43164;50.908;18.092;2023-09-08T00:26:38;13.30;;;6.40;;
57331;SDS011;43164;50.908;18.092;2023-09-08T00:29:07;9.90;;;6.20;;
57331;SDS011;43164;50.908;18.092;2023-09-08T00:31:35;8.90;;;5.90;;
57331;SDS011;43164;50.908;18.092;2023-09-08T00:34:04;10.30;;;6.50;;
57331;SDS011;43164;50.908;18.092;2023-09-08T00:36:33;10.30;;;5.70;;
57331;SDS011;43164;50.908;18.092;2023-09-08T00:39:01;9.70;;;5.20;;
57331;SDS011;43164;50.908;18.092;2023-09-08T00:41:33;8.30;;;4.40;;
57331;SDS011;43164;50.908;18.092;2023-09-08T00:44:01;9.20;;;5.40;;
57331;SDS011;43164;50.908;18.092;2023-09-08T00:46:29;11.00;;;5.70;;
57331;SDS011;43164;50.908;18.092;2023-09-08T00:48:57;9.80;;;5.40;;
57331;SDS011;43164;50.908;18.092;2023-09-08T00:51:25;7.50;;;4.30;;
57331;SDS011;43164;50.908;18.092;2023-09-08T00:53:53;7.80;;;4.90;;
57331;SDS011;43164;50.908;18.092;2023-09-08T00:56:22;9.80;;;4.80;;
57331;SDS011;43164;50.908;18.092;2023-09-08T00:58:50;8.70;;;4.70;;
57331;SDS011;43164;50.908;18.092;2023-09-08T01:01:19;9.50;;;4.70;;
57331;SDS011;43164;50.908;18.092;2023-09-08T01:03:47;7.30;;;3.90;;
57331;SDS011;43164;50.908;18.092;2023-09-08T01:06:13;8.00;;;4.10;;
57331;SDS011;43164;50.908;18.092;2023-09-08T01:08:42;5.50;;;3.60;;
57331;SDS011;43164;50.908;18.092;2023-09-08T01:11:11;7.10;;;4.20;;
57331;SDS011;43164;50.908;18.092;2023-09-08T01:13:39;7.60;;;4.30;;
57331;SDS011;43164;50.908;18.092;2023-09-08T01:16:06;8.30;;;4.70;;
57331;SDS011;43164;50.908;18.092;2023-09-08T01:18:34;9.00;;;4.70;;
57331;SDS011;43164;50.908;18.092;2023-09-08T01:21:20;8.00;;;5.10;;
57331;SDS011;43164;50.908;18.092;2023-09-08T01:26:46;9.50;;;4.90;;
57331;SDS011;43164;50.908;18.092;2023-09-08T01:29:13;8.20;;;6.00;;
57331;SDS011;43164;50.908;18.092;2023-09-08T01:31:43;8.60;;;5.10;;
57331;SDS011;43164;50.908;18.092;2023-09-08T01:34:19;6.60;;;4.30;;
57331;SDS011;43164;50.908;18.092;2023-09-08T01:36:47;7.40;;;4.60;;
57331;SDS011;43164;50.908;18.092;2023-09-08T01:39:22;8.60;;;5.40;;
57331;SDS011;43164;50.908;18.092;2023-09-08T01:41:51;9.10;;;5.50;;
57331;SDS011;43164;50.908;18.092;2023-09-08T01:44:23;8.10;;;4.40;;
57331;SDS011;43164;50.908;18.092;2023-09-08T01:46:50;8.10;;;5.20;;
57331;SDS011;43164;50.908;18.092;2023-09-08T01:49:23;9.10;;;5.00;;
57331;SDS011;43164;50.908;18.092;2023-09-08T01:51:51;9.90;;;5.40;;
57331;SDS011;43164;50.908;18.092;2023-09-08T01:54:20;9.10;;;5.40;;
57331;SDS011;43164;50.908;18.092;2023-09-08T01:56:47;7.90;;;5.60;;
57331;SDS011;43164;50.908;18.092;2023-09-08T01:59:15;12.90;;;6.40;;
57331;SDS011;43164;50.908;18.092;2023-09-08T02:01:43;10.60;;;5.90;;
57331;SDS011;43164;50.908;18.092;2023-09-08T02:04:12;9.10;;;5.70;;
57331;SDS011;43164;50.908;18.092;2023-09-08T02:06:40;9.10;;;6.40;;
57331;SDS011;43164;50.908;18.092;2023-09-08T02:09:08;11.60;;;6.50;;
57331;SDS011;43164;50.908;18.092;2023-09-08T02:11:42;8.30;;;5.40;;
57331;SDS011;43164;50.908;18.092;2023-09-08T02:14:11;8.50;;;5.70;;
57331;SDS011;43164;50.908;18.092;2023-09-08T02:16:39;7.50;;;5.20;;
57331;SDS011;43164;50.908;18.092;2023-09-08T02:19:07;9.10;;;5.90;;
57331;SDS011;43164;50.908;18.092;2023-09-08T02:21:36;8.50;;;5.80;;
57331;SDS011;43164;50.908;18.092;2023-09-08T02:24:04;8.60;;;5.10;;
57331;SDS011;43164;50.908;18.092;2023-09-08T02:26:33;7.50;;;5.40;;
57331;SDS011;43164;50.908;18.092;2023-09-08T02:29:01;10.80;;;5.90;;
57331;SDS011;43164;50.908;18.092;2023-09-08T02:31:29;8.30;;;5.80;;
57331;SDS011;43164;50.908;18.092;2023-09-08T02:33:57;8.60;;;6.40;;
57331;SDS011;43164;50.908;18.092;2023-09-08T02:36:25;8.20;;;6.20;;
57331;SDS011;43164;50.908;18.092;2023-09-08T02:38:54;8.50;;;5.80;;
57331;SDS011;43164;50.908;18.092;2023-09-08T02:41:23;9.60;;;6.70;;
57331;SDS011;43164;50.908;18.092;2023-09-08T02:43:51;10.50;;;7.40;;
57331;SDS011;43164;50.908;18.092;2023-09-08T02:46:20;10.00;;;6.90;;
57331;SDS011;43164;50.908;18.092;2023-09-08T02:48:48;10.30;;;7.10;;
57331;SDS011;43164;50.908;18.092;2023-09-08T02:51:15;9.00;;;6.80;;
57331;SDS011;43164;50.908;18.092;2023-09-08T02:53:45;10.10;;;6.90;;
57331;SDS011;43164;50.908;18.092;2023-09-08T02:56:14;11.00;;;7.50;;
57331;SDS011;43164;50.908;18.092;2023-09-08T02:58:42;9.90;;;7.30;;
57331;SDS011;43164;50.908;18.092;2023-09-08T03:01:14;9.30;;;6.90;;
57331;SDS011;43164;50.908;18.092;2023-09-08T03:03:46;9.40;;;6.70;;
57331;SDS011;43164;50.908;18.092;2023-09-08T03:06:20;8.70;;;6.60;;
57331;SDS011;43164;50.908;18.092;2023-09-08T03:08:47;8.30;;;5.80;;
57331;SDS011;43164;50.908;18.092;2023-09-08T03:11:16;10.40;;;6.10;;
57331;SDS011;43164;50.908;18.092;2023-09-08T03:13:44;10.80;;;6.50;;
57331;SDS011;43164;50.908;18.092;2023-09-08T03:18:47;9.30;;;6.20;;
57331;SDS011;43164;50.908;18.092;2023-09-08T03:21:22;9.90;;;6.50;;
57331;SDS011;43164;50.908;18.092;2023-09-08T03:23:50;9.30;;;6.60;;
57331;SDS011;43164;50.908;18.092;2023-09-08T03:26:19;9.50;;;6.80;;
57331;SDS011;43164;50.908;18.092;2023-09-08T03:28:47;10.30;;;7.00;;
57331;SDS011;43164;50.908;18.092;2023-09-08T03:31:16;9.90;;;7.50;;
57331;SDS011;43164;50.908;18.092;2023-09-08T03:33:44;14.40;;;8.60;;
57331;SDS011;43164;50.908;18.092;2023-09-08T03:36:12;12.10;;;8.70;;
57331;SDS011;43164;50.908;18.092;2023-09-08T03:38:41;13.90;;;8.70;;
57331;SDS011;43164;50.908;18.092;2023-09-08T03:41:13;10.00;;;7.50;;
57331;SDS011;43164;50.908;18.092;2023-09-08T03:43:43;12.20;;;7.90;;
57331;SDS011;43164;50.908;18.092;2023-09-08T03:46:12;10.00;;;7.40;;
57331;SDS011;43164;50.908;18.092;2023-09-08T03:48:40;11.00;;;7.50;;
57331;SDS011;43164;50.908;18.092;2023-09-08T03:51:08;14.10;;;10.00;;
57331;SDS011;43164;50.908;18.092;2023-09-08T03:53:38;12.60;;;9.20;;
57331;SDS011;43164;50.908;18.092;2023-09-08T03:56:10;11.20;;;8.20;;
57331;SDS011;43164;50.908;18.092;2023-09-08T03:58:42;11.10;;;9.10;;
57331;SDS011;43164;50.908;18.092;2023-09-08T04:01:11;13.00;;;8.80;;
57331;SDS011;43164;50.908;18.092;2023-09-08T04:03:40;12.00;;;8.10;;
57331;SDS011;43164;50.908;18.092;2023-09-08T04:06:09;11.10;;;7.90;;
57331;SDS011;43164;50.908;18.092;2023-09-08T04:08:38;10.90;;;7.20;;
57331;SDS011;43164;50.908;18.092;2023-09-08T04:11:08;10.40;;;6.90;;
57331;SDS011;43164;50.908;18.092;2023-09-08T04:13:38;10.00;;;6.70;;
57331;SDS011;43164;50.908;18.092;2023-09-08T04:16:08;9.20;;;6.70;;
57331;SDS011;43164;50.908;18.092;2023-09-08T04:18:37;10.40;;;7.10;;
57331;SDS011;43164;50.908;18.092;2023-09-08T04:21:09;9.40;;;6.70;;
57331;SDS011;43164;50.908;18.092;2023-09-08T04:23:47;11.60;;;6.90;;
57331;SDS011;43164;50.908;18.092;2023-09-08T04:26:16;10.50;;;7.20;;
57331;SDS011;43164;50.908;18.092;2023-09-08T04:28:51;12.20;;;7.20;;
57331;SDS011;43164;50.908;18.092;2023-09-08T04:31:20;11.00;;;7.10;;
57331;SDS011;43164;50.908;18.092;2023-09-08T04:33:53;12.40;;;8.00;;
57331;SDS011;43164;50.908;18.092;2023-09-08T04:36:25;10.50;;;7.80;;
57331;SDS011;43164;50.908;18.092;2023-09-08T04:38:59;11.20;;;8.40;;
57331;SDS011;43164;50.908;18.092;2023-09-08T04:41:39;11.50;;;7.70;;
57331;SDS011;43164;50.908;18.092;2023-09-08T04:44:12;11.60;;;7.20;;
57331;SDS011;43164;50.908;18.092;2023-09-08T04:46:41;12.40;;;7.90;;
57331;SDS011;43164;50.908;18.092;2023-09-08T04:49:18;10.70;;;7.20;;
57331;SDS011;43164;50.908;18.092;2023-09-08T04:51:49;9.80;;;6.70;;
57331;SDS011;43164;50.908;18.092;2023-09-08T04:54:26;15.70;;;7.80;;
57331;SDS011;43164;50.908;18.092;2023-09-08T04:56:55;9.10;;;6.90;;
57331;SDS011;43164;50.908;18.092;2023-09-08T04:59:38;8.60;;;5.70;;
57331;SDS011;43164;50.908;18.092;2023-09-08T05:02:08;12.10;;;6.60;;
57331;SDS011;43164;50.908;18.092;2023-09-08T05:04:45;18.70;;;15.90;;
57331;SDS011;43164;50.908;18.092;2023-09-08T05:07:16;15.10;;;10.40;;
57331;SDS011;43164;50.908;18.092;2023-09-08T05:09:47;12.10;;;8.10;;
57331;SDS011;43164;50.908;18.092;2023-09-08T05:12:17;10.80;;;4.80;;
57331;SDS011;43164;50.908;18.092;2023-09-08T05:14:54;8.20;;;3.30;;
57331;SDS011;43164;50.908;18.092;2023-09-08T05:17:32;4.30;;;2.40;;
57331;SDS011;43164;50.908;18.092;2023-09-08T05:20:08;3.50;;;2.20;;
57331;SDS011;43164;50.908;18.092;2023-09-08T05:22:37;4.80;;;2.60;;
57331;SDS011;43164;50.908;18.092;2023-09-08T05:25:11;4.30;;;2.70;;
57331;SDS011;43164;50.908;18.092;2023-09-08T05:27:41;5.00;;;2.20;;
57331;SDS011;43164;50.908;18.092;2023-09-08T05:30:20;7.20;;;3.10;;
57331;SDS011;43164;50.908;18.092;2023-09-08T05:35:21;4.70;;;2.70;;
57331;SDS011;43164;50.908;18.092;2023-09-08T05:37:59;5.40;;;2.80;;
57331;SDS011;43164;50.908;18.092;2023-09-08T05:40:35;5.50;;;3.40;;
57331;SDS011;43164;50.908;18.092;2023-09-08T05:43:13;6.30;;;3.70;;
57331;SDS011;43164;50.908;18.092;2023-09-08T05:45:45;7.10;;;4.00;;
57331;SDS011;43164;50.908;18.092;2023-09-08T05:48:22;6.80;;;3.60;;
57331;SDS011;43164;50.908;18.092;2023-09-08T05:50:52;8.70;;;4.20;;
57331;SDS011;43164;50.908;18.092;2023-09-08T05:53:27;9.80;;;4.40;;
57331;SDS011;43164;50.908;18.092;2023-09-08T05:55:58;8.90;;;4.50;;
57331;SDS011;43164;50.908;18.092;2023-09-08T05:58:34;6.80;;;3.50;;
57331;SDS011;43164;50.908;18.092;2023-09-08T06:01:24;7.20;;;4.40;;
57331;SDS011;43164;50.908;18.092;2023-09-08T06:07:48;8.90;;;4.60;;
57331;SDS011;43164;50.908;18.092;2023-09-08T06:10:18;9.00;;;4.30;;
57331;SDS011;43164;50.908;18.092;2023-09-08T06:12:48;8.90;;;4.40;;
57331;SDS011;43164;50.908;18.092;2023-09-08T06:15:21;9.00;;;4.70;;
57331;SDS011;43164;50.908;18.092;2023-09-08T06:17:56;10.60;;;5.00;;
57331;SDS011;43164;50.908;18.092;2023-09-08T06:23:22;8.30;;;4.80;;
57331;SDS011;43164;50.908;18.092;2023-09-08T06:32:45;8.50;;;4.60;;
57331;SDS011;43164;50.908;18.092;2023-09-08T06:35:33;9.40;;;4.90;;
57331;SDS011;43164;50.908;18.092;2023-09-08T06:38:16;9.70;;;5.10;;
57331;SDS011;43164;50.908;18.092;2023-09-08T06:44:32;10.00;;;5.30;;
57331;SDS011;43164;50.908;18.092;2023-09-08T06:47:25;8.60;;;5.10;;
57331;SDS011;43164;50.908;18.092;2023-09-08T06:50:09;11.70;;;5.30;;
57331;SDS011;43164;50.908;18.092;2023-09-08T06:52:46;9.30;;;5.20;;
57331;SDS011;43164;50.908;18.092;2023-09-08T06:55:31;9.50;;;4.70;;
57331;SDS011;43164;50.908;18.092;2023-09-08T06:58:08;9.90;;;4.90;;
57331;SDS011;43164;50.908;18.092;2023-09-08T07:00:42;9.30;;;5.20;;
57331;SDS011;43164;50.908;18.092;2023-09-08T07:10:13;10.80;;;5.10;;
57331;SDS011;43164;50.908;18.092;2023-09-08T07:16:31;10.80;;;5.50;;
57331;SDS011;43164;50.908;18.092;2023-09-08T07:25:34;12.30;;;5.70;;
57331;SDS011;43164;50.908;18.092;2023-09-08T07:28:08;10.10;;;5.20;;
57331;SDS011;43164;50.908;18.092;2023-09-08T07:30:40;9.50;;;4.90;;
57331;SDS011;43164;50.908;18.092;2023-09-08T07:44:07;11.00;;;5.60;;
57331;SDS011;43164;50.908;18.092;2023-09-08T07:46:36;9.80;;;4.70;;
57331;SDS011;43164;50.908;18.092;2023-09-08T08:09:13;10.10;;;4.70;;
57331;SDS011;43164;50.908;18.092;2023-09-08T08:11:49;9.80;;;5.00;;
57331;SDS011;43164;50.908;18.092;2023-09-08T08:28:16;8.60;;;4.80;;
57331;SDS011;43164;50.908;18.092;2023-09-08T08:38:39;8.60;;;5.00;;
57331;SDS011;43164;50.908;18.092;2023-09-08T08:41:11;8.70;;;4.10;;
57331;SDS011;43164;50.908;18.092;2023-09-08T08:58:17;10.20;;;3.80;;
57331;SDS011;43164;50.908;18.092;2023-09-08T09:30:45;8.60;;;3.70;;
57331;SDS011;43164;50.908;18.092;2023-09-08T09:34:16;7.80;;;3.50;;
57331;SDS011;43164;50.908;18.092;2023-09-08T09:40:57;6.90;;;3.20;;
57331;SDS011;43164;50.908;18.092;2023-09-08T09:47:11;7.80;;;3.50;;
57331;SDS011;43164;50.908;18.092;2023-09-08T09:49:46;7.40;;;3.50;;
57331;SDS011;43164;50.908;18.092;2023-09-08T09:55:56;8.90;;;3.70;;
57331;SDS011;43164;50.908;18.092;2023-09-08T10:11:42;7.30;;;3.30;;
57331;SDS011;43164;50.908;18.092;2023-09-08T10:14:14;7.30;;;3.50;;
57331;SDS011;43164;50.908;18.092;2023-09-08T10:16:49;7.40;;;3.40;;
57331;SDS011;43164;50.908;18.092;2023-09-08T10:19:22;6.90;;;3.30;;
57331;SDS011;43164;50.908;18.092;2023-09-08T10:24:55;7.40;;;3.20;;
57331;SDS011;43164;50.908;18.092;2023-09-08T10:44:00;7.90;;;3.20;;
57331;SDS011;43164;50.908;18.092;2023-09-08T10:46:34;6.30;;;2.90;;
57331;SDS011;43164;50.908;18.092;2023-09-08T10:53:06;7.60;;;3.00;;
57331;SDS011;43164;50.908;18.092;2023-09-08T10:55:58;6.60;;;3.00;;
57331;SDS011;43164;50.908;18.092;2023-09-08T11:05:19;6.90;;;3.80;;
57331;SDS011;43164;50.908;18.092;2023-09-08T11:08:00;8.30;;;3.30;;
57331;SDS011;43164;50.908;18.092;2023-09-08T11:14:14;6.20;;;2.90;;
57331;SDS011;43164;50.908;18.092;2023-09-08T11:16:53;6.80;;;3.20;;
57331;SDS011;43164;50.908;18.092;2023-09-08T11:25:55;6.80;;;2.70;;
57331;SDS011;43164;50.908;18.092;2023-09-08T11:34:52;6.00;;;3.10;;
57331;SDS011;43164;50.908;18.092;2023-09-08T11:37:26;6.10;;;3.00;;
57331;SDS011;43164;50.908;18.092;2023-09-08T11:42:59;5.80;;;3.10;;
57331;SDS011;43164;50.908;18.092;2023-09-08T11:48:27;6.40;;;3.40;;
57331;SDS011;43164;50.908;18.092;2023-09-08T11:50:56;6.80;;;3.20;;
57331;SDS011;43164;50.908;18.092;2023-09-08T11:53:25;5.60;;;2.70;;
57331;SDS011;43164;50.908;18.092;2023-09-08T11:55:53;6.00;;;3.00;;
57331;SDS011;43164;50.908;18.092;2023-09-08T11:58:29;5.20;;;2.80;;
57331;SDS011;43164;50.908;18.092;2023-09-08T12:00:57;6.30;;;3.10;;
57331;SDS011;43164;50.908;18.092;2023-09-08T12:03:35;8.00;;;2.80;;
57331;SDS011;43164;50.908;18.092;2023-09-08T12:07:06;6.10;;;2.60;;
57331;SDS011;43164;50.908;18.092;2023-09-08T12:09:52;6.40;;;3.10;;
57331;SDS011;43164;50.908;18.092;2023-09-08T12:51:40;7.70;;;3.50;;
57331;SDS011;43164;50.908;18.092;2023-09-08T12:54:14;7.00;;;3.00;;
57331;SDS011;43164;50.908;18.092;2023-09-08T12:56:58;5.50;;;2.80;;
57331;SDS011;43164;50.908;18.092;2023-09-08T12:59:48;6.20;;;2.70;;
57331;SDS011;43164;50.908;18.092;2023-09-08T13:11:34;6.80;;;2.60;;
57331;SDS011;43164;50.908;18.092;2023-09-08T13:14:10;5.30;;;2.80;;
57331;SDS011;43164;50.908;18.092;2023-09-08T13:16:44;8.20;;;3.30;;
57331;SDS011;43164;50.908;18.092;2023-09-08T13:23:18;5.30;;;2.70;;
57331;SDS011;43164;50.908;18.092;2023-09-08T13:26:06;8.50;;;3.20;;
57331;SDS011;43164;50.908;18.092;2023-09-08T13:28:46;6.00;;;3.00;;
57331;SDS011;43164;50.908;18.092;2023-09-08T13:57:15;5.20;;;2.90;;
57331;SDS011;43164;50.908;18.092;2023-09-08T14:03:35;5.60;;;2.70;;
57331;SDS011;43164;50.908;18.092;2023-09-08T14:09:36;6.30;;;2.90;;
57331;SDS011;43164;50.908;18.092;2023-09-08T14:15:38;7.60;;;2.60;;
57331;SDS011;43164;50.908;18.092;2023-09-08T14:19:43;5.70;;;2.80;;
57331;SDS011;43164;50.908;18.092;2023-09-08T14:22:26;6.50;;;2.70;;
57331;SDS011;43164;50.908;18.092;2023-09-08T14:25:17;7.90;;;3.00;;
57331;SDS011;43164;50.908;18.092;2023-09-08T14:28:15;7.40;;;2.50;;
57331;SDS011;43164;50.908;18.092;2023-09-08T14:42:09;6.60;;;2.60;;
57331;SDS011;43164;50.908;18.092;2023-09-08T15:02:24;6.30;;;2.90;;
57331;SDS011;43164;50.908;18.092;2023-09-08T15:05:17;6.50;;;3.00;;
57331;SDS011;43164;50.908;18.092;2023-09-08T15:11:54;8.70;;;3.00;;
57331;SDS011;43164;50.908;18.092;2023-09-08T15:14:49;8.20;;;4.20;;
57331;SDS011;43164;50.908;18.092;2023-09-08T15:17:22;10.10;;;3.70;;
57331;SDS011;43164;50.908;18.092;2023-09-08T15:30:30;6.70;;;2.70;;
57331;SDS011;43164;50.908;18.092;2023-09-08T15:36:02;5.50;;;2.70;;
57331;SDS011;43164;50.908;18.092;2023-09-08T15:38:37;5.30;;;2.50;;
57331;SDS011;43164;50.908;18.092;2023-09-08T15:41:39;5.80;;;2.90;;
57331;SDS011;43164;50.908;18.092;2023-09-08T15:44:11;5.70;;;3.00;;
57331;SDS011;43164;50.908;18.092;2023-09-08T15:46:46;6.60;;;2.70;;
57331;SDS011;43164;50.908;18.092;2023-09-08T15:49:26;7.90;;;2.60;;
57331;SDS011;43164;50.908;18.092;2023-09-08T15:52:13;5.60;;;2.80;;
57331;SDS011;43164;50.908;18.092;2023-09-08T15:54:48;5.80;;;3.00;;
57331;SDS011;43164;50.908;18.092;2023-09-08T16:04:19;8.70;;;4.10;;
57331;SDS011;43164;50.908;18.092;2023-09-08T16:07:22;9.30;;;4.20;;
57331;SDS011;43164;50.908;18.092;2023-09-08T16:09:57;7.80;;;3.30;;
57331;SDS011;43164;50.908;18.092;2023-09-08T16:21:23;7.90;;;3.20;;
57331;SDS011;43164;50.908;18.092;2023-09-08T16:24:02;6.90;;;3.30;;
57331;SDS011;43164;50.908;18.092;2023-09-08T16:26:51;7.10;;;3.00;;
57331;SDS011;43164;50.908;18.092;2023-09-08T16:29:46;6.90;;;3.60;;
57331;SDS011;43164;50.908;18.092;2023-09-08T16:32:19;7.70;;;3.70;;
57331;SDS011;43164;50.908;18.092;2023-09-08T16:35:13;9.10;;;4.40;;
57331;SDS011;43164;50.908;18.092;2023-09-08T16:37:48;9.80;;;5.00;;
57331;SDS011;43164;50.908;18.092;2023-09-08T16:40:24;12.20;;;4.90;;
57331;SDS011;43164;50.908;18.092;2023-09-08T16:42:57;12.70;;;5.10;;
57331;SDS011;43164;50.908;18.092;2023-09-08T16:45:33;9.50;;;4.40;;
57331;SDS011;43164;50.908;18.092;2023-09-08T16:58:06;14.50;;;4.50;;
57331;SDS011;43164;50.908;18.092;2023-09-08T17:04:09;13.30;;;5.20;;
57331;SDS011;43164;50.908;18.092;2023-09-08T17:10:13;12.10;;;5.20;;
57331;SDS011;43164;50.908;18.092;2023-09-08T17:12:49;10.30;;;5.40;;
57331;SDS011;43164;50.908;18.092;2023-09-08T17:15:16;10.10;;;5.50;;
57331;SDS011;43164;50.908;18.092;2023-09-08T17:20:25;9.10;;;4.80;;
57331;SDS011;43164;50.908;18.092;2023-09-08T17:23:10;11.50;;;4.50;;
57331;SDS011;43164;50.908;18.092;2023-09-08T17:25:39;8.30;;;4.60;;
57331;SDS011;43164;50.908;18.092;2023-09-08T17:28:08;9.80;;;5.40;;
57331;SDS011;43164;50.908;18.092;2023-09-08T17:34:19;8.10;;;4.50;;
57331;SDS011;43164;50.908;18.092;2023-09-08T17:36:53;9.00;;;5.00;;
57331;SDS011;43164;50.908;18.092;2023-09-08T17:39:26;8.90;;;5.20;;
57331;SDS011;43164;50.908;18.092;2023-09-08T17:41:54;8.90;;;5.10;;
57331;SDS011;43164;50.908;18.092;2023-09-08T17:44:21;9.30;;;5.20;;
57331;SDS011;43164;50.908;18.092;2023-09-08T17:46:50;12.00;;;5.90;;
57331;SDS011;43164;50.908;18.092;2023-09-08T17:49:18;9.60;;;5.20;;
57331;SDS011;43164;50.908;18.092;2023-09-08T17:51:47;11.90;;;5.60;;
57331;SDS011;43164;50.908;18.092;2023-09-08T17:54:15;10.60;;;5.90;;
57331;SDS011;43164;50.908;18.092;2023-09-08T17:56:42;10.30;;;5.40;;
57331;SDS011;43164;50.908;18.092;2023-09-08T17:59:09;12.00;;;5.40;;
57331;SDS011;43164;50.908;18.092;2023-09-08T18:01:37;9.10;;;5.50;;
57331;SDS011;43164;50.908;18.092;2023-09-08T18:04:05;10.00;;;5.40;;
57331;SDS011;43164;50.908;18.092;2023-09-08T18:06:34;9.60;;;5.00;;
57331;SDS011;43164;50.908;18.092;2023-09-08T18:15:25;15.40;;;6.50;;
57331;SDS011;43164;50.908;18.092;2023-09-08T18:24:12;8.40;;;5.90;;
57331;SDS011;43164;50.908;18.092;2023-09-08T18:26:39;9.90;;;5.90;;
57331;SDS011;43164;50.908;18.092;2023-09-08T18:29:06;10.40;;;5.40;;
57331;SDS011;43164;50.908;18.092;2023-09-08T18:31:36;10.50;;;5.80;;
57331;SDS011;43164;50.908;18.092;2023-09-08T18:34:05;9.00;;;5.40;;
57331;SDS011;43164;50.908;18.092;2023-09-08T18:36:40;10.20;;;6.20;;
57331;SDS011;43164;50.908;18.092;2023-09-08T18:39:10;9.80;;;5.60;;
57331;SDS011;43164;50.908;18.092;2023-09-08T18:41:39;9.10;;;6.20;;
57331;SDS011;43164;50.908;18.092;2023-09-08T18:47:10;8.70;;;6.10;;
57331;SDS011;43164;50.908;18.092;2023-09-08T18:49:37;10.40;;;6.30;;
57331;SDS011;43164;50.908;18.092;2023-09-08T18:52:05;11.80;;;7.10;;
57331;SDS011;43164;50.908;18.092;2023-09-08T18:54:34;9.80;;;6.70;;
57331;SDS011;43164;50.908;18.092;2023-09-08T18:57:21;11.20;;;7.00;;
57331;SDS011;43164;50.908;18.092;2023-09-08T18:59:58;13.30;;;6.60;;
57331;SDS011;43164;50.908;18.092;2023-09-08T19:02:35;9.50;;;6.50;;
57331;SDS011;43164;50.908;18.092;2023-09-08T19:05:02;12.10;;;6.50;;
57331;SDS011;43164;50.908;18.092;2023-09-08T19:07:35;10.50;;;6.90;;
57331;SDS011;43164;50.908;18.092;2023-09-08T19:10:02;10.60;;;6.50;;
57331;SDS011;43164;50.908;18.092;2023-09-08T19:12:29;12.80;;;6.80;;
57331;SDS011;43164;50.908;18.092;2023-09-08T19:14:56;12.40;;;6.60;;
57331;SDS011;43164;50.908;18.092;2023-09-08T19:17:24;12.90;;;7.20;;
57331;SDS011;43164;50.908;18.092;2023-09-08T19:19:51;12.10;;;7.00;;
57331;SDS011;43164;50.908;18.092;2023-09-08T19:22:19;11.40;;;6.80;;
57331;SDS011;43164;50.908;18.092;2023-09-08T19:24:46;10.90;;;7.20;;
57331;SDS011;43164;50.908;18.092;2023-09-08T19:27:18;11.60;;;7.70;;
57331;SDS011;43164;50.908;18.092;2023-09-08T19:29:49;10.10;;;6.70;;
57331;SDS011;43164;50.908;18.092;2023-09-08T19:32:17;9.40;;;6.20;;
57331;SDS011;43164;50.908;18.092;2023-09-08T19:34:45;9.40;;;6.40;;
57331;SDS011;43164;50.908;18.092;2023-09-08T19:37:13;13.60;;;7.40;;
57331;SDS011;43164;50.908;18.092;2023-09-08T19:39:41;10.60;;;6.90;;
57331;SDS011;43164;50.908;18.092;2023-09-08T19:42:09;12.00;;;7.90;;
57331;SDS011;43164;50.908;18.092;2023-09-08T19:44:36;10.60;;;6.90;;
57331;SDS011;43164;50.908;18.092;2023-09-08T19:47:04;9.40;;;5.70;;
57331;SDS011;43164;50.908;18.092;2023-09-08T19:49:32;11.40;;;7.30;;
57331;SDS011;43164;50.908;18.092;2023-09-08T19:52:00;10.10;;;7.00;;
57331;SDS011;43164;50.908;18.092;2023-09-08T19:54:28;11.30;;;7.20;;
57331;SDS011;43164;50.908;18.092;2023-09-08T19:57:01;10.50;;;6.70;;
57331;SDS011;43164;50.908;18.092;2023-09-08T19:59:32;11.30;;;6.00;;
57331;SDS011;43164;50.908;18.092;2023-09-08T20:02:00;13.30;;;6.40;;
57331;SDS011;43164;50.908;18.092;2023-09-08T20:04:36;13.00;;;7.40;;
57331;SDS011;43164;50.908;18.092;2023-09-08T20:07:05;9.90;;;6.60;;
57331;SDS011;43164;50.908;18.092;2023-09-08T20:09:33;9.60;;;6.40;;
57331;SDS011;43164;50.908;18.092;2023-09-08T20:12:01;10.20;;;7.10;;
57331;SDS011;43164;50.908;18.092;2023-09-08T20:14:30;13.70;;;7.40;;
57331;SDS011;43164;50.908;18.092;2023-09-08T20:16:59;13.00;;;7.30;;
57331;SDS011;43164;50.908;18.092;2023-09-08T20:19:33;10.50;;;7.50;;
57331;SDS011;43164;50.908;18.092;2023-09-08T20:22:07;10.20;;;6.20;;
57331;SDS011;43164;50.908;18.092;2023-09-08T20:24:44;10.30;;;6.60;;
57331;SDS011;43164;50.908;18.092;2023-09-08T20:27:13;11.00;;;6.90;;
57331;SDS011;43164;50.908;18.092;2023-09-08T20:29:46;9.60;;;6.10;;
57331;SDS011;43164;50.908;18.092;2023-09-08T20:32:20;9.20;;;6.00;;
57331;SDS011;43164;50.908;18.092;2023-09-08T20:34:50;10.80;;;6.70;;
57331;SDS011;43164;50.908;18.092;2023-09-08T20:37:18;13.50;;;7.20;;
57331;SDS011;43164;50.908;18.092;2023-09-08T20:39:47;10.30;;;6.70;;
57331;SDS011;43164;50.908;18.092;2023-09-08T20:42:16;10.70;;;7.10;;
57331;SDS011;43164;50.908;18.092;2023-09-08T20:44:44;11.70;;;6.60;;
57331;SDS011;43164;50.908;18.092;2023-09-08T20:47:13;9.60;;;6.40;;
57331;SDS011;43164;50.908;18.092;2023-09-08T20:49:44;10.90;;;7.40;;
57331;SDS011;43164;50.908;18.092;2023-09-08T20:52:13;11.30;;;6.40;;
57331;SDS011;43164;50.908;18.092;2023-09-08T20:54:42;9.70;;;6.50;;
57331;SDS011;43164;50.908;18.092;2023-09-08T20:57:15;10.70;;;6.80;;
57331;SDS011;43164;50.908;18.092;2023-09-08T20:59:46;11.80;;;6.40;;
57331;SDS011;43164;50.908;18.092;2023-09-08T21:02:14;10.30;;;6.80;;
57331;SDS011;43164;50.908;18.092;2023-09-08T21:04:43;12.20;;;6.70;;
57331;SDS011;43164;50.908;18.092;2023-09-08T21:07:11;11.40;;;7.60;;
57331;SDS011;43164;50.908;18.092;2023-09-08T21:09:39;12.30;;;7.20;;
57331;SDS011;43164;50.908;18.092;2023-09-08T21:12:11;11.20;;;7.60;;
57331;SDS011;43164;50.908;18.092;2023-09-08T21:14:40;11.40;;;7.60;;
57331;SDS011;43164;50.908;18.092;2023-09-08T21:17:08;11.70;;;7.70;;
57331;SDS011;43164;50.908;18.092;2023-09-08T21:19:37;12.40;;;7.80;;
57331;SDS011;43164;50.908;18.092;2023-09-08T21:22:12;14.00;;;8.10;;
57331;SDS011;43164;50.908;18.092;2023-09-08T21:24:41;11.10;;;7.70;;
57331;SDS011;43164;50.908;18.092;2023-09-08T21:27:11;12.50;;;7.80;;
57331;SDS011;43164;50.908;18.092;2023-09-08T21:29:39;13.20;;;8.30;;
57331;SDS011;43164;50.908;18.092;2023-09-08T21:32:25;13.90;;;8.80;;
57331;SDS011;43164;50.908;18.092;2023-09-08T21:34:53;11.80;;;8.50;;
57331;SDS011;43164;50.908;18.092;2023-09-08T21:37:22;11.50;;;8.10;;
57331;SDS011;43164;50.908;18.092;2023-09-08T21:39:51;12.20;;;8.50;;
57331;SDS011;43164;50.908;18.092;2023-09-08T21:42:20;10.70;;;8.10;;
57331;SDS011;43164;50.908;18.092;2023-09-08T21:44:48;12.60;;;8.40;;
57331;SDS011;43164;50.908;18.092;2023-09-08T21:47:16;11.90;;;8.40;;
57331;SDS011;43164;50.908;18.092;2023-09-08T21:49:46;10.40;;;7.90;;